createdAt,value
2024-04-12T00:00:13.576Z,30.6
2024-04-12T00:15:38.643Z,30.3
2024-04-12T00:31:03.352Z,29.2
2024-04-12T00:46:28.435Z,26.1
2024-04-12T01:01:53.600Z,27
2024-04-12T01:17:18.410Z,29.7
2024-04-12T01:32:43.921Z,31.5
2024-04-12T01:48:09.676Z,35
2024-04-12T02:03:35.097Z,35.4
2024-04-12T02:19:01.154Z,34.4
2024-04-12T02:34:26.651Z,33.9
2024-04-12T02:49:51.219Z,35.7
2024-04-12T03:05:16.373Z,34.4
2024-04-12T03:20:41.158Z,31.3
2024-04-12T03:36:05.855Z,28.6
2024-04-12T03:51:30.403Z,28.6
2024-04-12T04:06:55.193Z,30
2024-04-12T04:22:19.798Z,27.8
2024-04-12T04:37:44.876Z,27.4
2024-04-12T04:53:09.742Z,31.4
2024-04-12T05:08:34.434Z,32.7
2024-04-12T05:23:59.401Z,34.3
2024-04-12T05:39:24.724Z,35.9
2024-04-12T05:54:49.388Z,34.4
2024-04-12T06:10:14.146Z,30.2
2024-04-12T06:25:39.153Z,29.8
2024-04-12T06:41:04.769Z,26.9
2024-04-12T06:56:30.165Z,16
2024-04-12T07:11:55.750Z,12.3
2024-04-12T07:27:21.832Z,11
2024-04-12T07:42:46.676Z,7.9
2024-04-12T07:58:12.215Z,10.1
2024-04-12T08:13:37.069Z,5.9
2024-04-12T08:29:02.393Z,6.2
2024-04-12T08:44:27.479Z,7.5
2024-04-12T08:59:52.501Z,7.8
2024-04-12T09:15:17.808Z,7.8
2024-04-12T09:30:43.192Z,10.2
2024-04-12T09:46:08.358Z,12.8
2024-04-12T10:01:33.912Z,11
2024-04-12T10:16:59.765Z,14.8
2024-04-12T10:32:25.474Z,11.7
2024-04-12T10:47:51.648Z,12.2
2024-04-12T11:03:25.000Z,10.3
2024-04-12T11:18:52.237Z,12.3
2024-04-12T11:34:35.842Z,7.9
2024-04-12T11:50:06.742Z,8.1
2024-04-12T12:05:32.307Z,8.7
2024-04-12T12:20:57.916Z,10.4
2024-04-12T12:36:22.933Z,13.5
2024-04-12T12:51:47.951Z,12.5
2024-04-12T13:07:13.007Z,13
2024-04-12T13:22:37.708Z,12.4
2024-04-12T13:38:02.607Z,12.9
2024-04-12T13:53:27.557Z,13.1
2024-04-12T14:08:53.032Z,16.1
2024-04-12T14:24:18.277Z,14.3
2024-04-12T14:39:43.233Z,15.4
2024-04-12T14:55:08.040Z,14.2
2024-04-12T15:10:33.138Z,15.9
2024-04-12T15:25:58.510Z,15.8
2024-04-12T15:41:23.395Z,14.7
2024-04-12T15:56:47.916Z,16.7
2024-04-12T16:12:13.173Z,13.3
2024-04-12T16:27:38.450Z,12.5
2024-04-12T16:43:03.359Z,11.4
2024-04-12T16:58:28.524Z,12.3
2024-04-12T17:13:52.713Z,12.9
2024-04-12T17:29:17.370Z,12.3
2024-04-12T17:44:42.248Z,11.8
2024-04-12T18:00:07.534Z,11.9
2024-04-12T18:15:32.261Z,13.5
2024-04-12T18:30:57.834Z,12.4
2024-04-12T18:46:22.613Z,12.8
2024-04-12T19:01:47.801Z,13.7
2024-04-12T19:17:11.901Z,15.5
2024-04-12T19:32:37.387Z,14.7
2024-04-12T19:48:02.893Z,14.1
2024-04-12T20:03:28.723Z,12.7
2024-04-12T20:18:53.996Z,12.7
2024-04-12T20:34:19.369Z,14
2024-04-12T20:49:43.854Z,11.6
2024-04-12T21:05:08.896Z,9.6
2024-04-12T21:20:34.197Z,10
2024-04-12T21:35:59.507Z,12.5
2024-04-12T21:51:25.014Z,11.8
2024-04-12T22:06:50.887Z,12.5
2024-04-12T22:22:16.310Z,12.5
2024-04-12T22:37:40.884Z,14.6
2024-04-12T22:53:05.778Z,15.5
2024-04-12T23:08:30.091Z,13.6
2024-04-12T23:23:55.160Z,13.4
2024-04-12T23:39:20.541Z,12.5
2024-04-12T23:54:45.312Z,14.3
